Time;durP1;ratioP1;P1;durP2;ratioP2;P2;SDS_P1;SDS_P2;PMS_P1;PMS_P2;Temp;Humidity;BMP_temperature;BMP_pressure;BME280_temperature;BME280_humidity;BME280_pressure;Samples;Min_cycle;Max_cycle;Signal;HPM_P1;HPM_P2
2023/03/14 00:01:15;;;;;;;6.50;2.70;;;;;;;23.89;35.56;98862.38;4470656;32;33891;-55
2023/03/14 00:03:43;;;;;;;4.65;2.50;;;;;;;23.88;35.60;98870.81;4468119;32;34169;-60
2023/03/14 00:06:11;;;;;;;8.00;3.08;;;;;;;23.89;35.49;98861.56;4468172;32;33537;-60
2023/03/14 00:08:39;;;;;;;6.78;2.67;;;;;;;23.88;35.69;98851.75;4468050;32;33990;-56
2023/03/14 00:11:09;;;;;;;6.87;2.90;;;;;;;23.87;35.78;98850.06;4466810;32;34394;-59
2023/03/14 00:13:36;;;;;;;6.75;2.40;;;;;;;23.86;35.72;98848.44;4467418;32;33449;-57
2023/03/14 00:16:08;;;;;;;7.10;2.78;;;;;;;23.85;35.74;98831.25;4467759;32;34567;-58
2023/03/14 00:18:36;;;;;;;6.97;2.60;;;;;;;23.84;35.78;98837.78;4466756;32;33672;-57
2023/03/14 00:21:04;;;;;;;7.07;2.67;;;;;;;23.84;35.75;98835.06;4468016;32;34152;-59
2023/03/14 00:23:32;;;;;;;4.18;2.67;;;;;;;23.83;35.81;98819.81;4467758;32;33415;-57
2023/03/14 00:26:10;;;;;;;7.07;2.72;;;;;;;23.83;35.85;98832.59;4467433;32;34557;-59
2023/03/14 00:28:38;;;;;;;7.00;3.00;;;;;;;23.82;35.85;98823.59;4467654;32;33963;-57
2023/03/14 00:31:06;;;;;;;7.35;2.70;;;;;;;23.81;35.83;98813.78;4466536;32;33893;-58
2023/03/14 00:33:34;;;;;;;6.00;2.60;;;;;;;23.81;35.86;98802.88;4467882;32;34172;-58
2023/03/14 00:36:05;;;;;;;7.97;2.75;;;;;;;23.80;35.84;98814.84;4482110;32;34030;-54
2023/03/14 00:38:34;;;;;;;4.28;2.53;;;;;;;23.79;35.90;98804.22;4483440;32;33532;-58
2023/03/14 00:41:06;;;;;;;7.15;2.67;;;;;;;23.79;35.93;98804.22;4482044;32;34171;-60
2023/03/14 00:43:33;;;;;;;6.72;2.65;;;;;;;23.80;36.07;98794.97;4483184;32;33714;-57
2023/03/14 00:46:01;;;;;;;5.95;2.70;;;;;;;23.81;36.00;98785.72;4483286;32;33868;-58
2023/03/14 00:48:28;;;;;;;6.57;2.62;;;;;;;23.79;36.06;98794.16;4483351;32;33540;-59
2023/03/14 00:50:56;;;;;;;6.22;2.20;;;;;;;23.79;36.08;98796.87;4482933;32;34724;-59
2023/03/14 00:53:23;;;;;;;7.87;2.87;;;;;;;23.80;36.02;98787.63;4483178;32;33138;-58
2023/03/14 00:55:51;;;;;;;7.53;2.83;;;;;;;23.79;36.18;98779.72;4483160;32;34756;-58
2023/03/14 00:58:19;;;;;;;9.15;3.60;;;;;;;23.79;36.22;98774.25;4483180;32;34850;-59
2023/03/14 01:00:46;;;;;;;5.85;2.53;;;;;;;23.78;36.19;98780.75;4472649;32;33621;-55
2023/03/14 01:03:14;;;;;;;6.03;2.30;;;;;;;23.79;36.18;98793.31;4467168;32;33043;-58
2023/03/14 01:05:42;;;;;;;8.77;2.97;;;;;;;23.77;36.13;98793.56;4467106;32;34440;-55
2023/03/14 01:08:11;;;;;;;7.80;2.40;;;;;;;23.77;36.09;98790.00;4467408;32;33290;-57
2023/03/14 01:10:40;;;;;;;6.85;2.53;;;;;;;23.77;36.15;98787.28;4467275;32;33977;-59
2023/03/14 01:13:08;;;;;;;7.25;2.65;;;;;;;23.78;36.17;98775.31;4467114;32;33090;-58
2023/03/14 01:15:36;;;;;;;5.85;2.70;;;;;;;23.76;36.20;98774.75;4467165;32;34002;-56
2023/03/14 01:18:03;;;;;;;6.28;2.65;;;;;;;23.75;36.21;98775.84;4466988;32;34450;-57
2023/03/14 01:20:31;;;;;;;7.07;2.78;;;;;;;23.74;36.17;98766.84;4465883;32;33983;-59
2023/03/14 01:22:59;;;;;;;5.57;2.55;;;;;;;23.74;36.17;98763.31;4467067;32;33229;-59
2023/03/14 01:25:26;;;;;;;10.80;2.92;;;;;;;23.74;36.15;98757.84;4468301;32;33519;-55
2023/03/14 01:27:54;;;;;;;7.55;2.55;;;;;;;23.73;36.10;98754.28;4469593;32;34166;-57
2023/03/14 01:30:22;;;;;;;5.30;2.50;;;;;;;23.73;36.08;98740.66;4469519;32;33787;-54
2023/03/14 01:32:49;;;;;;;4.93;2.50;;;;;;;23.73;36.09;98724.31;4469483;32;33628;-57
2023/03/14 01:35:17;;;;;;;4.95;2.28;;;;;;;23.73;36.18;98713.44;4478998;32;34687;-56
2023/03/14 01:37:45;;;;;;;8.27;2.85;;;;;;;23.72;36.10;98705.53;4485038;32;33688;-57
2023/03/14 01:40:16;;;;;;;6.90;2.72;;;;;;;23.71;36.17;98717.50;4485127;32;33719;-59
2023/03/14 01:42:46;;;;;;;6.05;2.33;;;;;;;23.71;36.12;98714.78;4485076;32;34167;-58
2023/03/14 01:45:51;;;;;;;7.00;2.80;;;;;;;23.71;36.14;98703.88;4485240;32;33553;-57
2023/03/14 01:48:18;;;;;;;8.25;2.53;;;;;;;23.73;36.13;98694.38;4484755;32;34029;-57
2023/03/14 01:50:46;;;;;;;5.40;2.17;;;;;;;23.70;36.21;98688.63;4483554;31;33957;-57
2023/03/14 01:53:14;;;;;;;4.18;2.12;;;;;;;23.67;36.27;98679.88;4483514;32;33529;-58
2023/03/14 01:55:41;;;;;;;7.25;2.47;;;;;;;23.67;36.24;98674.44;4470896;32;33402;-59
2023/03/14 01:58:09;;;;;;;8.48;2.67;;;;;;;23.68;36.21;98673.34;4483508;32;34169;-59
2023/03/14 02:00:36;;;;;;;7.37;2.35;;;;;;;23.68;36.21;98667.06;4470867;32;34739;-57
2023/03/14 02:03:06;;;;;;;8.75;2.45;;;;;;;23.67;36.21;98670.88;4484923;32;34123;-59
2023/03/14 02:05:35;;;;;;;5.78;2.30;;;;;;;23.66;36.21;98671.97;4483457;32;33529;-59
2023/03/14 02:08:05;;;;;;;7.30;2.60;;;;;;;23.68;36.21;98672.53;4483782;32;34506;-57
2023/03/14 02:10:45;;;;;;;6.20;2.33;;;;;;;23.67;36.31;98668.97;4470977;32;33894;-57
2023/03/14 02:13:14;;;;;;;6.62;2.65;;;;;;;23.70;36.18;98661.38;4484993;32;33389;-56
2023/03/14 02:15:44;;;;;;;6.15;2.35;;;;;;;23.67;36.28;98657.25;4483812;32;33501;-55
2023/03/14 02:18:11;;;;;;;8.20;2.22;;;;;;;23.66;36.35;98655.62;4483381;32;34511;-57
2023/03/14 02:20:42;;;;;;;5.12;2.42;;;;;;;23.65;36.38;98652.09;4483620;32;34107;-58
2023/03/14 02:23:09;;;;;;;5.32;2.40;;;;;;;23.65;36.40;98645.81;4484658;32;33336;-56
2023/03/14 02:26:30;;;;;;;5.95;2.40;;;;;;;23.64;36.38;98642.28;4483451;32;34744;-58
2023/03/14 02:28:58;;;;;;;6.10;1.98;;;;;;;23.68;36.35;98639.84;4422726;32;34121;-57
2023/03/14 02:31:25;;;;;;;11.12;2.65;;;;;;;23.64;36.40;98633.25;4423273;32;33834;-58
2023/03/14 02:33:53;;;;;;;7.32;2.55;;;;;;;23.63;36.38;98629.69;4469607;31;33461;-55
2023/03/14 02:36:20;;;;;;;6.53;2.25;;;;;;;23.62;36.36;98621.78;4468268;32;33839;-58
2023/03/14 02:38:51;;;;;;;4.45;2.33;;;;;;;23.63;36.29;98615.25;4455082;32;34689;-54
2023/03/14 02:41:22;;;;;;;3.85;1.85;;;;;;;23.62;36.34;98621.78;4468878;32;34581;-59
2023/03/14 02:43:50;;;;;;;4.50;2.20;;;;;;;23.61;36.28;98604.63;4469043;32;33958;-56
2023/03/14 02:46:18;;;;;;;8.02;2.95;;;;;;;23.61;36.34;98620.97;4468684;32;34544;-60
2023/03/14 02:49:15;;;;;;;6.97;2.33;;;;;;;23.60;36.42;98624.78;4468869;32;33572;-58
2023/03/14 02:51:43;;;;;;;6.45;2.60;;;;;;;23.64;36.35;98615.03;4454728;32;33911;-59
2023/03/14 02:54:11;;;;;;;5.87;2.22;;;;;;;23.62;36.39;98613.59;4454781;32;33348;-56
2023/03/14 02:56:39;;;;;;;4.68;2.30;;;;;;;23.62;36.38;98606.25;4468976;32;33699;-52
2023/03/14 02:59:07;;;;;;;4.25;2.28;;;;;;;23.60;36.32;98611.16;4469055;32;33717;-56
2023/03/14 03:01:35;;;;;;;3.85;1.90;;;;;;;23.59;36.28;98590.41;4468939;32;34681;-56
2023/03/14 03:04:02;;;;;;;4.93;1.87;;;;;;;23.60;36.34;98604.88;4468853;32;33345;-58
2023/03/14 03:06:30;;;;;;;8.07;2.28;;;;;;;23.60;36.30;98602.97;4468670;32;33923;-59
2023/03/14 03:08:58;;;;;;;5.18;2.22;;;;;;;23.59;36.30;98593.16;4468613;32;33920;-56
2023/03/14 03:11:25;;;;;;;7.10;2.50;;;;;;;23.58;36.36;98583.34;4468620;32;34179;-56
2023/03/14 03:13:52;;;;;;;7.15;2.08;;;;;;;23.58;36.30;98582.53;4468687;32;33485;-56
2023/03/14 03:16:21;;;;;;;5.25;2.40;;;;;;;23.58;36.28;98590.69;4468590;32;34095;-56
2023/03/14 03:18:48;;;;;;;7.87;2.28;;;;;;;23.58;36.25;98572.44;4468445;32;34117;-55
2023/03/14 03:21:16;;;;;;;6.95;2.42;;;;;;;23.58;36.27;98574.34;4468391;32;33829;-57
2023/03/14 03:23:43;;;;;;;5.75;2.62;;;;;;;23.57;36.36;98570.81;4468617;32;33014;-56
2023/03/14 03:26:11;;;;;;;8.40;2.42;;;;;;;23.56;36.34;98563.72;4468528;32;33670;-57
2023/03/14 03:28:38;;;;;;;5.18;2.33;;;;;;;23.56;36.26;98558.28;4468583;32;34965;-59
2023/03/14 03:31:09;;;;;;;8.02;2.25;;;;;;;23.55;36.24;98553.94;4468797;32;33590;-53
2023/03/14 03:33:37;;;;;;;5.05;2.20;;;;;;;23.54;36.29;98552.25;4468489;32;33342;-58
2023/03/14 03:36:05;;;;;;;6.47;2.40;;;;;;;23.54;36.27;98541.38;4481755;32;34617;-57
2023/03/14 03:38:34;;;;;;;7.82;2.12;;;;;;;23.54;36.30;98541.38;4484327;32;34070;-54
2023/03/14 03:41:04;;;;;;;4.55;2.22;;;;;;;23.54;36.26;98546.81;4484312;32;33862;-56
2023/03/14 03:43:32;;;;;;;8.70;2.30;;;;;;;23.54;36.27;98548.72;4484315;32;33380;-55
2023/03/14 03:46:06;;;;;;;4.45;2.22;;;;;;;23.55;36.29;98553.94;4484331;32;33982;-59
2023/03/14 03:48:34;;;;;;;7.35;2.35;;;;;;;23.52;36.34;98546.25;4482638;31;35009;-56
2023/03/14 03:51:02;;;;;;;7.15;2.20;;;;;;;23.51;36.35;98547.34;4484247;32;34357;-59
2023/03/14 03:53:29;;;;;;;4.97;2.15;;;;;;;23.52;36.39;98557.16;4484239;32;34039;-59
2023/03/14 03:56:01;;;;;;;4.40;2.00;;;;;;;23.53;36.48;98561.50;4482939;32;33962;-59
2023/03/14 03:58:29;;;;;;;4.93;2.33;;;;;;;23.51;36.46;98571.03;4484048;32;33577;-50
2023/03/14 04:00:56;;;;;;;5.05;2.62;;;;;;;23.50;36.39;98567.50;4483881;32;34120;-57
2023/03/14 04:03:25;;;;;;;7.50;2.25;;;;;;;23.49;36.48;98562.28;4482458;32;33536;-55
2023/03/14 04:05:59;;;;;;;7.55;2.42;;;;;;;23.49;36.54;98563.09;4484184;32;33595;-57
2023/03/14 04:08:27;;;;;;;4.87;2.15;;;;;;;23.49;36.49;98568.53;4483785;32;34596;-59
2023/03/14 04:10:56;;;;;;;5.45;2.00;;;;;;;23.49;36.50;98584.88;4483892;32;35262;-57
2023/03/14 04:13:25;;;;;;;3.83;1.83;;;;;;;23.49;36.52;98571.25;4484041;32;34158;-59
2023/03/14 04:15:54;;;;;;;7.90;2.05;;;;;;;23.48;36.42;98563.38;4482516;32;33650;-57
2023/03/14 04:18:24;;;;;;;7.78;2.00;;;;;;;23.48;36.46;98564.19;4483818;32;34596;-54
2023/03/14 04:20:55;;;;;;;3.08;1.90;;;;;;;23.47;36.46;98557.09;4483862;32;33472;-59
2023/03/14 04:23:25;;;;;;;5.70;2.53;;;;;;;23.49;36.44;98554.94;4483655;32;33253;-48
2023/03/14 04:25:52;;;;;;;6.95;2.10;;;;;;;23.48;36.50;98568.81;4483481;32;33948;-59
2023/03/14 04:28:20;;;;;;;4.50;2.20;;;;;;;23.47;36.51;98575.34;4483768;32;34635;-58
2023/03/14 04:30:48;;;;;;;4.75;2.05;;;;;;;23.46;36.60;98576.44;4482077;32;33123;-58
2023/03/14 04:33:19;;;;;;;6.60;2.12;;;;;;;23.46;36.53;98571.78;4483782;32;33397;-56
2023/03/14 04:35:47;;;;;;;5.93;2.00;;;;;;;23.45;36.43;98567.41;4470724;32;33999;-57
2023/03/14 04:38:15;;;;;;;5.47;1.87;;;;;;;23.46;36.47;98568.25;4467872;32;33809;-53
2023/03/14 04:40:43;;;;;;;5.60;1.87;;;;;;;23.46;36.49;98568.25;4468053;32;33727;-57
2023/03/14 04:43:11;;;;;;;4.95;1.85;;;;;;;23.43;36.42;98562.22;4466739;32;34107;-53
2023/03/14 04:45:42;;;;;;;5.57;2.42;;;;;;;23.42;36.47;98555.16;4467707;32;32834;-59
2023/03/14 04:48:10;;;;;;;5.18;2.03;;;;;;;23.44;36.52;98554.88;4467884;32;33532;-58
2023/03/14 04:50:38;;;;;;;3.75;1.95;;;;;;;23.43;36.47;98545.06;4467614;32;33431;-59
2023/03/14 04:53:06;;;;;;;5.43;1.90;;;;;;;23.42;36.42;98546.97;4467803;32;33539;-59
2023/03/14 04:55:35;;;;;;;4.30;1.90;;;;;;;23.42;36.48;98543.44;4466502;32;33503;-59
2023/03/14 04:58:02;;;;;;;5.72;2.10;;;;;;;23.42;36.42;98554.31;4467528;32;33860;-60
2023/03/14 05:00:30;;;;;;;5.82;2.20;;;;;;;23.41;36.48;98552.69;4469010;32;33688;-60
2023/03/14 05:02:57;;;;;;;7.43;2.33;;;;;;;23.42;36.49;98554.31;4469346;32;33487;-59
2023/03/14 05:05:25;;;;;;;4.82;1.92;;;;;;;23.40;36.44;98554.56;4469774;32;34545;-59
2023/03/14 05:07:55;;;;;;;3.20;1.70;;;;;;;23.40;36.42;98557.28;4469531;32;34673;-57
2023/03/14 05:10:22;;;;;;;4.10;2.42;;;;;;;23.40;36.38;98551.84;4469746;32;34043;-59
2023/03/14 05:12:50;;;;;;;3.90;1.80;;;;;;;23.39;36.44;98543.94;4469313;32;33097;-58
2023/03/14 05:15:19;;;;;;;6.53;2.40;;;;;;;23.38;36.41;98554.00;4469333;32;34697;-57
2023/03/14 05:17:48;;;;;;;6.03;2.20;;;;;;;23.39;36.50;98552.09;4469575;32;34418;-60
2023/03/14 05:20:19;;;;;;;4.60;2.25;;;;;;;23.38;36.47;98543.13;4469259;32;34076;-56
2023/03/14 05:22:48;;;;;;;4.72;1.70;;;;;;;23.40;36.48;98534.69;4469425;32;33631;-59
2023/03/14 05:25:16;;;;;;;9.73;2.00;;;;;;;23.39;36.40;98538.50;4469713;32;33860;-59
2023/03/14 05:27:45;;;;;;;4.63;2.30;;;;;;;23.39;36.49;98533.06;4469317;32;34466;-57
2023/03/14 05:30:13;;;;;;;7.80;2.12;;;;;;;23.38;36.52;98534.12;4469468;32;34724;-52
2023/03/14 05:32:41;;;;;;;5.45;2.03;;;;;;;23.39;36.44;98542.03;4469520;32;33313;-54
2023/03/14 05:35:09;;;;;;;4.85;2.08;;;;;;;23.38;36.45;98540.41;4477765;32;33894;-57
2023/03/14 05:37:37;;;;;;;4.45;2.03;;;;;;;23.37;36.45;98530.59;4484847;32;34752;-58
2023/03/14 05:40:06;;;;;;;6.57;1.70;;;;;;;23.37;36.46;98522.44;4484745;32;34085;-57
2023/03/14 05:42:34;;;;;;;4.80;2.17;;;;;;;23.38;36.47;98528.69;4484915;32;34284;-57
2023/03/14 05:45:05;;;;;;;5.80;2.20;;;;;;;23.38;36.41;98526.78;4484947;32;34911;-58
2023/03/14 05:47:33;;;;;;;3.80;1.90;;;;;;;23.39;36.40;98531.16;4484956;32;34003;-58
2023/03/14 05:50:01;;;;;;;5.10;2.30;;;;;;;23.38;36.41;98540.41;4484882;31;33955;-56
2023/03/14 05:52:29;;;;;;;6.43;2.20;;;;;;;23.38;36.49;98539.59;4485101;32;34108;-56
2023/03/14 05:54:57;;;;;;;3.75;1.83;;;;;;;23.37;36.45;98537.94;4484813;32;34290;-53
2023/03/14 05:57:25;;;;;;;3.90;1.98;;;;;;;23.37;36.48;98536.03;4484820;32;33711;-58
2023/03/14 05:59:53;;;;;;;6.87;2.20;;;;;;;23.37;36.48;98533.31;4484788;32;33767;-55
2023/03/14 06:02:21;;;;;;;3.92;1.73;;;;;;;23.37;36.49;98533.31;4484693;32;33351;-58
2023/03/14 06:04:50;;;;;;;4.70;2.05;;;;;;;23.37;36.48;98524.34;4484698;32;34414;-54
2023/03/14 06:07:17;;;;;;;4.55;1.90;;;;;;;23.37;36.45;98532.50;4484993;32;34655;-59
2023/03/14 06:09:46;;;;;;;4.55;2.05;;;;;;;23.37;36.37;98533.31;4484821;32;33848;-54
2023/03/14 06:12:17;;;;;;;3.83;2.03;;;;;;;23.36;36.42;98525.41;4484133;32;33539;-55
2023/03/14 06:14:45;;;;;;;4.83;2.10;;;;;;;23.37;36.46;98524.34;4484945;32;33915;-56
2023/03/14 06:17:12;;;;;;;3.15;1.90;;;;;;;23.37;36.42;98529.78;4484493;32;33847;-58
2023/03/14 06:19:41;;;;;;;3.35;1.77;;;;;;;23.35;36.44;98519.12;4484789;32;34680;-56
2023/03/14 06:22:11;;;;;;;3.90;2.00;;;;;;;23.36;36.49;98519.94;4474332;32;32559;-55
2023/03/14 06:24:40;;;;;;;7.20;2.08;;;;;;;23.36;36.53;98514.50;4469066;32;33665;-52
2023/03/14 06:27:08;;;;;;;6.62;1.90;;;;;;;23.35;36.51;98508.25;4468929;32;34551;-56
2023/03/14 06:29:35;;;;;;;4.12;2.08;;;;;;;23.36;36.53;98512.63;4468695;32;33961;-61
2023/03/14 06:32:04;;;;;;;3.45;1.77;;;;;;;23.35;36.48;98507.44;4481376;32;34296;-62
2023/03/14 06:34:32;;;;;;;4.62;1.98;;;;;;;23.34;36.58;98503.88;4484011;32;33848;-59
2023/03/14 06:36:59;;;;;;;5.07;2.08;;;;;;;23.34;36.53;98503.88;4483357;32;34132;-56
2023/03/14 06:39:27;;;;;;;8.43;2.45;;;;;;;23.34;36.60;98503.06;4468032;32;34527;-61
2023/03/14 06:41:58;;;;;;;5.28;2.28;;;;;;;23.35;36.54;98516.41;4468111;32;33479;-61
2023/03/14 06:44:26;;;;;;;7.25;2.10;;;;;;;23.35;36.41;98513.69;4468561;32;33649;-58
2023/03/14 06:46:53;;;;;;;14.70;2.33;;;;;;;23.33;36.41;98524.03;4468262;32;33710;-57
2023/03/14 06:49:21;;;;;;;10.25;2.30;;;;;;;23.34;36.29;98519.41;4468376;32;34658;-60
2023/03/14 06:51:51;;;;;;;;;;;;;;;23.33;36.23;98525.94;4467838;32;33102;-61
2023/03/14 06:54:18;;;;;;;18.55;3.35;;;;;;;23.41;36.13;98522.75;4469008;32;34088;-60
2023/03/14 06:56:46;;;;;;;14.55;3.12;;;;;;;23.35;36.24;98527.28;4468966;32;34637;-56
2023/03/14 06:59:14;;;;;;;19.37;3.75;;;;;;;23.34;36.43;98535.72;4468736;32;34323;-61
2023/03/14 07:01:45;;;;;;;17.08;3.85;;;;;;;23.34;36.41;98533.81;4468891;32;32922;-59
2023/03/14 07:04:12;;;;;;;8.75;2.90;;;;;;;23.36;36.35;98536.28;4477257;32;34735;-72
2023/03/14 07:06:44;;;;;;;13.50;3.35;;;;;;;23.37;36.29;98538.75;4481915;32;35099;-89
2023/03/14 07:09:11;;;;;;;5.93;2.62;;;;;;;23.38;36.26;98521.34;4483725;32;36295;-71
2023/03/14 07:11:39;;;;;;;7.90;2.90;;;;;;;23.41;36.27;98520.84;4481418;32;34135;-62
2023/03/14 07:14:07;;;;;;;6.85;2.55;;;;;;;23.43;36.25;98528.75;4481548;32;34799;-88
2023/03/14 07:16:34;;;;;;;9.48;3.00;;;;;;;23.43;36.38;98528.75;4483991;31;33818;-62
2023/03/14 07:19:02;;;;;;;11.10;4.12;;;;;;;23.45;36.43;98539.38;4497370;31;34562;-82
2023/03/14 07:21:32;;;;;;;4.93;3.03;;;;;;;23.45;36.56;98537.47;4499525;31;33593;-79
2023/03/14 07:24:00;;;;;;;6.18;2.72;;;;;;;23.47;36.45;98537.22;4498035;31;35269;-72
2023/03/14 07:26:28;;;;;;;6.62;2.37;;;;;;;23.48;36.66;98536.97;4497753;31;32841;-78
2023/03/14 07:28:56;;;;;;;8.73;2.80;;;;;;;23.49;36.66;98538.59;4497272;32;33650;-67
2023/03/14 07:31:23;;;;;;;8.60;2.85;;;;;;;23.52;36.93;98534.56;4497690;31;34406;-73
2023/03/14 07:33:51;;;;;;;10.25;4.00;;;;;;;23.53;36.98;98526.12;4497110;32;36191;-61
2023/03/14 07:36:19;;;;;;;8.73;3.15;;;;;;;23.52;37.18;98524.47;4496391;32;34908;-72
2023/03/14 07:38:47;;;;;;;10.88;3.30;;;;;;;23.54;37.27;98516.03;4495107;31;35181;-70
2023/03/14 07:41:15;;;;;;;9.30;2.85;;;;;;;23.54;37.34;98514.13;4497190;31;34773;-80
2023/03/14 07:43:43;;;;;;;7.97;2.85;;;;;;;23.56;37.33;98516.63;4499014;31;35168;-74
2023/03/14 07:46:11;;;;;;;7.28;2.90;;;;;;;23.56;37.42;98512.00;4499384;31;34597;-71
2023/03/14 07:48:38;;;;;;;7.60;3.20;;;;;;;23.57;37.47;98508.19;4498328;31;34798;-78
2023/03/14 07:51:06;;;;;;;4.80;2.50;;;;;;;23.59;37.47;98516.09;4498930;31;34434;-76
2023/03/14 07:53:33;;;;;;;6.43;3.08;;;;;;;23.60;37.47;98504.97;4498785;32;35147;-85
2023/03/14 07:56:01;;;;;;;5.03;2.55;;;;;;;23.61;37.50;98506.59;4498952;31;34491;-91
2023/03/14 07:58:29;;;;;;;7.35;2.95;;;;;;;23.62;37.41;98504.69;4499262;31;33995;-70
2023/03/14 08:00:58;;;;;;;9.00;3.20;;;;;;;23.61;37.23;98490.25;4499116;31;33724;-80
2023/03/14 08:03:26;;;;;;;7.93;3.05;;;;;;;23.62;37.05;98480.19;4498805;31;34240;-70
2023/03/14 08:05:54;;;;;;;6.60;3.00;;;;;;;23.63;36.97;98481.81;4499357;31;35256;-74
2023/03/14 08:08:21;;;;;;;10.95;3.28;;;;;;;23.63;36.85;98481.81;4499107;31;35523;-74
2023/03/14 08:10:49;;;;;;;8.18;3.17;;;;;;;23.63;36.94;98474.47;4498681;31;35029;-71
2023/03/14 08:13:16;;;;;;;6.80;2.95;;;;;;;23.64;36.84;98468.00;4498766;31;35305;-72
2023/03/14 08:15:47;;;;;;;7.07;3.12;;;;;;;23.65;36.91;98464.19;4498874;31;35224;-79
2023/03/14 08:18:15;;;;;;;4.43;2.65;;;;;;;23.64;36.92;98465.28;4497488;32;34851;-76
2023/03/14 08:20:42;;;;;;;5.30;2.70;;;;;;;23.65;36.80;98461.47;4498939;31;34478;-73
2023/03/14 08:23:10;;;;;;;5.55;2.85;;;;;;;23.66;36.80;98460.38;4498337;32;33773;-70
2023/03/14 08:25:38;;;;;;;7.62;3.08;;;;;;;23.67;36.82;98470.19;4497641;31;34400;-78
2023/03/14 08:28:05;;;;;;;5.95;3.17;;;;;;;23.67;36.81;98467.47;4500038;26;34368;-80
2023/03/14 08:30:33;;;;;;;7.18;2.80;;;;;;;23.69;36.81;98456.31;4490932;32;34591;-75
2023/03/14 08:33:01;;;;;;;8.52;2.80;;;;;;;23.69;36.80;98461.78;4495946;31;35152;-60
2023/03/14 08:35:31;;;;;;;7.53;2.83;;;;;;;23.69;36.81;98456.31;4472972;32;33551;-60
2023/03/14 08:38:01;;;;;;;;;;;;;;;23.72;36.79;98463.94;4472101;32;34645;-60
2023/03/14 08:40:29;;;;;;;7.87;3.00;;;;;;;23.81;36.61;98450.69;4479545;32;32952;-58
2023/03/14 08:42:56;;;;;;;5.35;2.72;;;;;;;23.74;36.76;98453.63;4480675;32;34683;-61
2023/03/14 08:45:24;;;;;;;5.87;3.05;;;;;;;23.73;36.88;98445.72;4469618;32;33471;-61
2023/03/14 08:47:52;;;;;;;6.05;2.50;;;;;;;23.73;36.92;98451.16;4469639;32;34059;-60
2023/03/14 08:50:20;;;;;;;5.72;2.85;;;;;;;23.73;37.04;98440.25;4456850;32;33368;-61
2023/03/14 08:52:47;;;;;;;6.03;2.28;;;;;;;23.74;37.14;98439.19;4464693;32;34659;-60
2023/03/14 08:55:16;;;;;;;9.85;3.55;;;;;;;23.74;37.23;98431.03;4469639;32;34752;-61
2023/03/14 08:57:43;;;;;;;5.78;3.10;;;;;;;23.75;37.33;98421.78;4469579;32;33703;-60
2023/03/14 09:00:15;;;;;;;8.35;2.67;;;;;;;23.77;37.37;98414.97;4457378;32;33116;-57
2023/03/14 09:02:43;;;;;;;5.68;2.40;;;;;;;23.78;37.43;98403.00;4453907;32;34565;-57
2023/03/14 09:05:10;;;;;;;5.07;2.75;;;;;;;23.80;37.47;98419.09;4458119;32;34923;-60
2023/03/14 09:07:38;;;;;;;7.90;2.75;;;;;;;23.81;37.48;98413.38;4455022;32;33859;-59
2023/03/14 09:10:07;;;;;;;14.00;3.08;;;;;;;23.80;37.54;98409.00;4469441;32;33435;-60
2023/03/14 09:12:34;;;;;;;7.95;2.87;;;;;;;23.81;37.52;98407.91;4455109;32;33990;-60
2023/03/14 09:15:02;;;;;;;6.40;2.80;;;;;;;23.82;37.46;98393.22;4469247;32;33970;-62
2023/03/14 09:17:30;;;;;;;7.05;2.87;;;;;;;23.84;37.36;98391.06;4455440;32;33841;-59
2023/03/14 09:19:57;;;;;;;10.70;3.30;;;;;;;23.85;37.30;98394.59;4443188;32;33317;-62
2023/03/14 09:22:27;;;;;;;7.72;2.58;;;;;;;23.85;37.23;98400.87;4427761;32;34108;-59
2023/03/14 09:24:54;;;;;;;5.35;2.70;;;;;;;23.86;37.14;98385.34;4453691;32;33733;-56
2023/03/14 09:27:22;;;;;;;5.05;2.70;;;;;;;23.86;37.09;98388.06;4466082;32;33875;-61
2023/03/14 09:29:49;;;;;;;6.78;2.60;;;;;;;23.86;37.02;98388.06;4453874;32;32986;-59
2023/03/14 09:32:17;;;;;;;7.35;2.75;;;;;;;23.85;36.97;98387.25;4449298;32;33694;-56
2023/03/14 09:34:45;;;;;;;6.80;2.50;;;;;;;23.85;36.89;98373.62;4466028;32;34019;-60
2023/03/14 09:37:13;;;;;;;7.12;2.95;;;;;;;23.85;36.84;98370.91;4463005;32;34232;-60
2023/03/14 09:39:41;;;;;;;7.35;3.10;;;;;;;23.84;36.75;98363.00;4468901;32;33348;-61
2023/03/14 09:42:12;;;;;;;8.05;2.67;;;;;;;23.83;36.69;98356.72;4468349;32;34661;-62
2023/03/14 09:45:02;;;;;;;6.80;3.00;;;;;;;23.84;36.66;98360.28;4442049;32;33788;-61
2023/03/14 09:47:29;;;;;;;6.15;2.60;;;;;;;23.82;36.61;98354.25;4437052;32;33782;-62
2023/03/14 09:49:57;;;;;;;5.97;2.53;;;;;;;23.83;36.51;98353.19;4446219;32;34243;-62
2023/03/14 09:52:27;;;;;;;7.65;3.05;;;;;;;23.82;36.48;98343.38;4452503;32;32337;-60
2023/03/14 09:54:58;;;;;;;5.78;2.53;;;;;;;23.81;36.47;98345.28;4440993;32;34007;-57
2023/03/14 09:57:26;;;;;;;7.40;2.80;;;;;;;23.81;36.35;98347.19;4429201;32;34914;-62
2023/03/14 10:00:06;;;;;;;7.80;2.40;;;;;;;23.80;36.34;98349.09;4453510;32;34170;-62
2023/03/14 10:02:35;;;;;;;6.68;2.72;;;;;;;23.80;36.35;98316.41;4455102;32;33679;-62
2023/03/14 10:05:07;;;;;;;9.52;3.10;;;;;;;23.79;36.30;98312.03;4469109;32;33854;-62
2023/03/14 10:07:35;;;;;;;5.50;2.60;;;;;;;23.77;36.11;98307.94;4442443;32;33977;-63
2023/03/14 10:10:10;;;;;;;7.95;2.83;;;;;;;23.77;35.98;98308.75;4464734;32;32785;-60
2023/03/14 10:12:41;;;;;;;7.47;2.67;;;;;;;23.77;35.88;98324.28;4442001;32;33926;-62
2023/03/14 10:15:14;;;;;;;8.65;2.90;;;;;;;23.76;35.71;98325.38;4468890;32;33659;-61
2023/03/14 10:17:46;;;;;;;7.35;2.30;;;;;;;23.74;35.68;98320.19;4455298;32;34655;-64
2023/03/14 10:20:49;;;;;;;7.25;2.42;;;;;;;23.73;35.73;98315.81;4442361;32;33384;-63
2023/03/14 10:23:17;;;;;;;7.43;2.80;;;;;;;23.76;35.61;98307.13;4454647;32;34642;-62
2023/03/14 10:25:46;;;;;;;6.47;2.67;;;;;;;23.73;35.39;98309.53;4469009;32;34724;-62
2023/03/14 10:28:30;;;;;;;10.05;2.85;;;;;;;23.71;35.30;98309.81;4454731;32;33485;-62
2023/03/14 10:30:58;;;;;;;6.90;2.50;;;;;;;23.73;35.21;98320.44;4454694;32;33816;-60
2023/03/14 10:33:31;;;;;;;8.88;2.37;;;;;;;23.68;35.23;98307.59;4455018;32;34633;-63
2023/03/14 10:36:03;;;;;;;6.62;2.35;;;;;;;23.66;35.29;98316.06;4468655;32;34734;-62
2023/03/14 10:38:34;;;;;;;7.05;2.92;;;;;;;23.67;35.33;98314.16;4468942;32;33944;-62
2023/03/14 10:41:03;;;;;;;9.85;2.60;;;;;;;23.64;35.31;98312.78;4454733;32;34374;-62
2023/03/14 10:43:35;;;;;;;5.28;2.45;;;;;;;23.64;35.26;98315.50;4454509;32;32823;-63
2023/03/14 10:46:06;;;;;;;5.85;2.40;;;;;;;23.63;35.25;98300.19;4441933;32;34120;-61
2023/03/14 10:48:38;;;;;;;8.18;2.42;;;;;;;23.63;35.28;98299.38;4454742;32;33918;-61
2023/03/14 10:51:19;;;;;;;7.10;2.40;;;;;;;23.60;35.30;98284.41;4468504;32;34126;-61
2023/03/14 10:53:48;;;;;;;10.35;2.95;;;;;;;23.61;35.28;98285.22;4454675;32;34403;-63
2023/03/14 10:56:18;;;;;;;8.52;2.50;;;;;;;23.57;35.33;98276.75;4454759;32;33667;-61
2023/03/14 10:58:47;;;;;;;5.32;2.15;;;;;;;23.58;35.33;98270.22;4454405;32;34653;-52
2023/03/14 11:01:45;;;;;;;6.15;2.40;;;;;;;23.58;35.34;98261.25;4441707;32;32707;-62
2023/03/14 11:04:39;;;;;;;8.32;2.33;;;;;;;23.59;35.33;98257.44;4468570;32;33569;-62
2023/03/14 11:07:48;;;;;;;5.65;2.50;;;;;;;23.58;35.31;98266.69;4448169;32;33906;-57
2023/03/14 11:10:32;;;;;;;4.93;1.87;;;;;;;23.55;35.40;98262.59;4447460;32;34506;-60
2023/03/14 11:13:08;;;;;;;5.50;2.20;;;;;;;23.55;35.41;98250.88;4460102;32;33006;-62
2023/03/14 11:15:42;;;;;;;4.87;2.30;;;;;;;23.51;35.46;98252.50;4453103;32;33860;-62
2023/03/14 11:18:36;;;;;;;6.32;2.15;;;;;;;23.50;35.46;98248.97;4454234;32;34758;-62
2023/03/14 11:21:08;;;;;;;7.62;2.90;;;;;;;23.51;35.47;98236.16;4444215;32;33939;-60
2023/03/14 11:23:41;;;;;;;6.62;2.40;;;;;;;23.48;35.48;98229.34;4462802;32;33083;-62
2023/03/14 11:26:18;;;;;;;9.68;2.37;;;;;;;23.47;35.51;98230.44;4431084;32;32504;-61
2023/03/14 11:28:48;;;;;;;4.55;2.10;;;;;;;23.47;35.49;98216.00;4455708;32;35151;-63
2023/03/14 11:31:20;;;;;;;5.18;2.35;;;;;;;23.45;35.53;98221.69;4440975;32;34770;-59
2023/03/14 11:34:10;;;;;;;4.28;2.30;;;;;;;23.44;35.54;98217.34;4454475;32;33732;-63
2023/03/14 11:36:42;;;;;;;8.02;2.20;;;;;;;23.47;35.48;98211.38;4452088;32;34324;-63
2023/03/14 11:39:17;;;;;;;4.93;2.35;;;;;;;23.45;35.49;98204.53;4441942;32;33784;-60
2023/03/14 11:41:52;;;;;;;4.32;1.85;;;;;;;23.42;35.51;98201.28;4456090;32;33361;-63
2023/03/14 11:44:22;;;;;;;6.75;2.20;;;;;;;23.44;35.53;98203.72;4426420;32;34060;-59
2023/03/14 11:47:10;;;;;;;5.75;1.90;;;;;;;23.41;35.53;98196.13;4451279;32;33848;-62